createdAt,value
2023-04-02T00:00:16.983Z,11.30
2023-04-02T00:04:36.644Z,7.90
2023-04-02T00:08:48.747Z,9.60
2023-04-02T00:12:46.657Z,12.70
2023-04-02T00:16:46.736Z,11.20
2023-04-02T00:20:51.695Z,10.70
2023-04-02T00:24:49.603Z,11.30
2023-04-02T00:28:47.654Z,8.30
2023-04-02T00:32:47.746Z,10.20
2023-04-02T00:36:50.786Z,11.00
2023-04-02T00:40:48.658Z,11.30
2023-04-02T00:44:49.575Z,9.20
2023-04-02T00:48:47.575Z,12.90
2023-04-02T00:52:47.618Z,10.10
2023-04-02T00:56:57.437Z,10.00
2023-04-02T01:00:55.584Z,7.90
2023-04-02T01:04:53.552Z,7.30
2023-04-02T01:09:18.527Z,7.60
2023-04-02T01:13:39.575Z,9.40
2023-04-02T01:18:05.635Z,8.70
2023-04-02T01:22:37.540Z,8.80
2023-04-02T01:26:48.552Z,9.10
2023-04-02T01:30:50.531Z,8.10
2023-04-02T01:34:51.514Z,8.80
2023-04-02T01:38:58.555Z,13.30
2023-04-02T01:47:13.560Z,12.00
2023-04-02T01:51:13.476Z,12.90
2023-04-02T01:55:11.497Z,13.70
2023-04-02T01:59:10.493Z,10.30
2023-04-02T02:03:08.714Z,10.30
2023-04-02T02:07:07.483Z,7.90
2023-04-02T02:11:05.494Z,10.20
2023-04-02T02:15:05.462Z,9.60
2023-04-02T02:19:07.468Z,10.30
2023-04-02T02:23:06.558Z,10.00
2023-04-02T02:27:19.574Z,8.60
2023-04-02T02:31:35.529Z,10.10
2023-04-02T02:35:38.831Z,9.20
2023-04-02T02:39:41.570Z,10.20
2023-04-02T02:43:41.499Z,9.60
2023-04-02T02:47:45.614Z,9.70
2023-04-02T02:51:54.450Z,9.60
2023-04-02T02:55:58.418Z,12.30
2023-04-02T03:00:01.420Z,13.40
2023-04-02T03:04:01.444Z,12.90
2023-04-02T03:08:00.475Z,12.00
2023-04-02T03:12:16.385Z,11.80
2023-04-02T03:16:23.412Z,13.70
2023-04-02T03:20:39.490Z,15.50
2023-04-02T03:24:54.481Z,14.50
2023-04-02T03:28:59.376Z,14.50
2023-04-02T03:32:59.486Z,14.70
2023-04-02T03:37:13.390Z,15.30
2023-04-02T03:41:26.418Z,15.80
2023-04-02T03:45:35.495Z,14.30
2023-04-02T03:49:38.474Z,13.90
2023-04-02T03:53:41.357Z,15.60
2023-04-02T03:57:51.346Z,17.40
2023-04-02T04:01:58.361Z,16.70
2023-04-02T04:06:06.345Z,15.20
2023-04-02T04:10:06.345Z,15.40
2023-04-02T04:14:11.396Z,14.40
2023-04-02T04:18:44.379Z,15.20
2023-04-02T04:22:43.407Z,15.40
2023-04-02T04:27:00.311Z,16.00
2023-04-02T04:31:27.379Z,17.80
2023-04-02T04:35:52.278Z,19.70
2023-04-02T04:40:12.301Z,17.30
2023-04-02T04:44:29.255Z,14.70
2023-04-02T04:48:36.491Z,15.90
2023-04-02T04:56:40.265Z,15.10
2023-04-02T05:00:43.265Z,17.10
2023-04-02T05:04:48.287Z,15.10
2023-04-02T05:08:51.227Z,17.80
2023-04-02T05:13:04.280Z,17.10
2023-04-02T05:17:28.229Z,16.50
2023-04-02T05:21:36.262Z,15.10
2023-04-02T05:25:41.193Z,15.80
2023-04-02T05:29:44.434Z,15.40
2023-04-02T05:33:44.195Z,17.40
2023-04-02T05:37:45.233Z,16.60
2023-04-02T05:41:50.266Z,15.50
2023-04-02T05:45:57.186Z,13.10
2023-04-02T05:50:07.161Z,13.80
2023-04-02T05:54:14.300Z,14.00
2023-04-02T05:58:34.460Z,18.20
2023-04-02T06:02:46.200Z,15.30
2023-04-02T06:06:56.171Z,17.10
2023-04-02T06:11:06.196Z,19.00
2023-04-02T06:15:05.146Z,18.00
2023-04-02T06:19:04.228Z,16.60
2023-04-02T06:23:10.109Z,14.60
2023-04-02T06:27:14.214Z,12.90
2023-04-02T06:31:17.121Z,15.00
2023-04-02T06:35:15.178Z,13.10
2023-04-02T06:39:26.169Z,14.00
2023-04-02T06:47:56.147Z,14.40
2023-04-02T06:52:09.143Z,14.90
2023-04-02T06:56:42.108Z,12.70
2023-04-02T07:00:54.137Z,13.70
2023-04-02T07:05:00.193Z,16.20
2023-04-02T07:09:00.100Z,16.80
2023-04-02T07:12:59.167Z,16.50
2023-04-02T07:16:58.068Z,17.30
2023-04-02T07:20:56.176Z,12.00
2023-04-02T07:24:55.089Z,12.50
2023-04-02T07:28:53.127Z,14.00
2023-04-02T07:32:51.145Z,14.80
2023-04-02T07:36:49.063Z,15.40
2023-04-02T07:40:47.084Z,16.90
2023-04-02T07:44:45.053Z,15.10
2023-04-02T07:48:43.040Z,16.10
2023-04-02T07:52:41.011Z,16.50
2023-04-02T07:56:39.085Z,16.60
2023-04-02T08:00:38.082Z,18.20
2023-04-02T08:04:37.089Z,17.10
2023-04-02T08:08:38.994Z,19.50
2023-04-02T08:12:38.067Z,20.70
2023-04-02T08:16:37.095Z,20.20
2023-04-02T08:20:37.094Z,19.70
2023-04-02T08:24:36.096Z,21.40
2023-04-02T08:28:33.982Z,19.10
2023-04-02T08:32:33.002Z,19.70
2023-04-02T08:36:33.037Z,18.80
2023-04-02T08:40:45.964Z,15.80
2023-04-02T08:45:24.371Z,15.70
2023-04-02T08:49:33.941Z,14.70
2023-04-02T08:53:35.966Z,17.00
2023-04-02T08:57:54.954Z,17.30
2023-04-02T09:02:16.981Z,15.60
2023-04-02T09:06:18.908Z,15.50
2023-04-02T09:10:17.083Z,16.40
2023-04-02T09:14:20.881Z,14.00
2023-04-02T09:18:29.974Z,14.60
2023-04-02T09:22:44.890Z,16.00
2023-04-02T09:26:45.924Z,16.50
2023-04-02T09:30:43.893Z,14.60
2023-04-02T09:34:47.897Z,15.10
2023-04-02T09:38:45.868Z,17.70
2023-04-02T09:42:47.047Z,15.20
2023-04-02T09:46:44.884Z,16.90
2023-04-02T09:50:46.883Z,18.30
2023-04-02T09:54:47.881Z,17.60
2023-04-02T09:58:45.945Z,19.60
2023-04-02T10:02:44.908Z,20.80
2023-04-02T10:06:22.552Z,22.30
2023-04-02T10:09:46.528Z,23.50
2023-04-02T10:13:17.510Z,23.80
2023-04-02T10:16:46.941Z,18.80
2023-04-02T10:20:24.130Z,18.70
2023-04-02T10:23:48.112Z,18.50
2023-04-02T10:27:25.700Z,20.00
2023-04-02T10:31:18.224Z,17.40
2023-04-02T10:34:48.827Z,20.70
2023-04-02T10:38:39.900Z,20.60
2023-04-02T10:42:31.750Z,22.70
2023-04-02T10:46:01.437Z,22.10
2023-04-02T10:49:49.034Z,22.20
2023-04-02T10:53:19.486Z,19.80
2023-04-02T10:59:31.519Z,19.50
2023-04-02T11:02:58.531Z,16.80
2023-04-02T11:06:28.611Z,19.50
2023-04-02T11:09:57.173Z,17.70
2023-04-02T11:13:49.127Z,15.10
2023-04-02T11:17:21.930Z,15.30
2023-04-02T11:20:48.900Z,14.60
2023-04-02T11:24:31.761Z,15.00
2023-04-02T11:27:55.755Z,14.80
2023-04-02T11:31:22.911Z,14.60
2023-04-02T11:34:59.831Z,14.30
2023-04-02T11:38:29.435Z,15.80
2023-04-02T11:42:06.667Z,13.20
2023-04-02T11:45:31.152Z,14.00
2023-04-02T11:49:30.715Z,11.80
2023-04-02T11:52:55.689Z,13.40
2023-04-02T11:57:03.475Z,13.70
2023-04-02T12:00:27.611Z,14.20
2023-04-02T12:04:16.167Z,15.70
2023-04-02T12:08:07.699Z,16.80
2023-04-02T12:11:42.269Z,17.10
2023-04-02T12:15:26.420Z,15.00
2023-04-02T12:18:55.061Z,14.00
2023-04-02T12:22:26.362Z,14.00
2023-04-02T12:26:03.517Z,15.10
2023-04-02T12:29:29.377Z,16.20
2023-04-02T12:33:29.734Z,14.00
2023-04-02T12:37:35.748Z,15.20
2023-04-02T12:41:47.785Z,15.40
2023-04-02T12:45:48.707Z,17.40
2023-04-02T12:49:57.710Z,19.20
2023-04-02T12:53:56.802Z,19.10
2023-04-02T12:57:56.701Z,18.40
2023-04-02T13:02:10.691Z,18.10
2023-04-02T13:06:10.705Z,18.20
2023-04-02T13:10:10.824Z,16.00
2023-04-02T13:14:16.686Z,16.70
2023-04-02T13:18:36.664Z,15.10
2023-04-02T13:22:45.800Z,15.10
2023-04-02T13:26:44.677Z,15.10
2023-04-02T13:30:43.668Z,19.20
2023-04-02T13:34:43.684Z,14.80
2023-04-02T13:38:41.680Z,16.00
2023-04-02T13:42:39.763Z,16.90
2023-04-02T13:46:40.743Z,14.30
2023-04-02T13:50:38.909Z,15.30
2023-04-02T13:54:45.728Z,14.40
2023-04-02T13:58:43.608Z,14.60
2023-04-02T14:02:41.657Z,12.80
2023-04-02T14:07:01.641Z,13.90
2023-04-02T14:11:11.608Z,11.70
2023-04-02T14:15:18.599Z,12.30
2023-04-02T14:19:34.671Z,16.50
2023-04-02T14:23:47.594Z,12.90
2023-04-02T14:27:58.658Z,12.40
2023-04-02T14:32:34.615Z,17.80
2023-04-02T14:37:08.621Z,14.20
2023-04-02T14:41:09.552Z,13.90
2023-04-02T14:45:19.614Z,14.40
2023-04-02T14:49:39.613Z,11.20
2023-04-02T14:54:15.629Z,13.50
2023-04-02T14:58:19.590Z,14.80
2023-04-02T15:02:39.625Z,15.20
2023-04-02T15:06:45.513Z,17.90
2023-04-02T15:10:48.578Z,18.80
2023-04-02T15:14:51.660Z,19.10
2023-04-02T15:18:49.728Z,18.00
2023-04-02T15:23:01.539Z,16.90
2023-04-02T15:27:25.507Z,17.00
2023-04-02T15:31:27.603Z,17.00
2023-04-02T15:35:47.641Z,17.40
2023-04-02T15:39:56.552Z,25.80
2023-04-02T15:44:21.636Z,17.40
2023-04-02T15:48:37.479Z,16.10
2023-04-02T15:53:09.673Z,16.50
2023-04-02T15:57:26.640Z,17.30
2023-04-02T16:01:43.512Z,17.50
2023-04-02T16:06:24.436Z,16.30
2023-04-02T16:10:42.417Z,14.00
2023-04-02T16:14:43.415Z,13.50
2023-04-02T16:19:15.852Z,14.70
2023-04-02T16:23:24.469Z,14.70
2023-04-02T16:27:33.508Z,14.10
2023-04-02T16:32:00.454Z,17.10
2023-04-02T16:36:23.557Z,13.70
2023-04-02T16:40:40.396Z,15.00
2023-04-02T16:44:50.514Z,20.20
2023-04-02T16:49:19.510Z,18.00
2023-04-02T16:53:33.465Z,15.00
2023-04-02T16:57:46.396Z,17.90
2023-04-02T17:02:12.432Z,14.50
2023-04-02T17:06:20.348Z,14.90
2023-04-02T17:10:56.415Z,16.90
2023-04-02T17:15:17.280Z,17.00
2023-04-02T17:19:27.497Z,14.00
2023-04-02T17:23:28.444Z,15.00
2023-04-02T17:27:38.344Z,13.10
2023-04-02T17:31:47.322Z,13.40
2023-04-02T17:36:13.386Z,12.50
2023-04-02T17:40:11.320Z,13.50
2023-04-02T17:44:15.342Z,11.90
2023-04-02T17:48:17.294Z,12.50
2023-04-02T17:52:30.358Z,13.40
2023-04-02T17:57:10.301Z,11.10
2023-04-02T18:01:32.481Z,12.20
2023-04-02T18:05:44.265Z,12.40
2023-04-02T18:09:52.320Z,12.40
2023-04-02T18:13:54.380Z,14.80
2023-04-02T18:17:58.462Z,17.10
2023-04-02T18:22:16.371Z,16.60
2023-04-02T18:26:33.439Z,13.70
2023-04-02T18:30:34.506Z,17.00
2023-04-02T18:35:09.366Z,11.80
2023-04-02T18:39:26.495Z,14.00
2023-04-02T18:43:50.385Z,16.00
2023-04-02T18:48:16.373Z,13.80
2023-04-02T18:52:16.233Z,14.20
2023-04-02T18:56:33.274Z,14.00
2023-04-02T19:00:41.252Z,12.40
2023-04-02T19:04:46.225Z,14.10
2023-04-02T19:08:58.287Z,10.90
2023-04-02T19:12:56.170Z,11.00
2023-04-02T19:17:14.229Z,11.70
2023-04-02T19:21:21.192Z,13.40
2023-04-02T19:25:43.206Z,15.90
2023-04-02T19:30:09.245Z,18.20
2023-04-02T19:34:24.311Z,12.40
2023-04-02T19:38:39.280Z,9.60
2023-04-02T19:42:59.292Z,11.10
2023-04-02T19:46:58.357Z,13.40
2023-04-02T19:50:56.167Z,15.70
2023-04-02T19:54:55.227Z,12.30
2023-04-02T19:58:53.140Z,9.90
2023-04-02T20:02:52.161Z,10.10
2023-04-02T20:06:50.140Z,11.10
2023-04-02T20:10:48.148Z,11.30
2023-04-02T20:14:46.207Z,10.40
2023-04-02T20:18:44.086Z,9.50
2023-04-02T20:22:44.194Z,9.60
2023-04-02T20:26:42.161Z,8.30
2023-04-02T20:30:40.190Z,9.20
2023-04-02T20:34:38.106Z,10.40
2023-04-02T20:38:36.099Z,9.00
2023-04-02T20:42:34.079Z,7.70
2023-04-02T20:46:32.144Z,8.80
2023-04-02T20:50:30.062Z,9.50
2023-04-02T20:54:28.055Z,9.70
2023-04-02T20:58:30.056Z,7.50
2023-04-02T21:02:28.096Z,8.00
2023-04-02T21:06:34.045Z,11.80
2023-04-02T21:14:32.050Z,8.10
2023-04-02T21:18:30.128Z,7.20
2023-04-02T21:22:27.970Z,8.60
2023-04-02T21:26:32.562Z,6.20
2023-04-02T21:30:32.250Z,7.10
2023-04-02T21:34:30.992Z,7.10
2023-04-02T21:38:28.972Z,7.00
2023-04-02T21:42:27.106Z,7.00
2023-04-02T21:46:25.047Z,5.00
2023-04-02T21:50:24.191Z,11.00
2023-04-02T21:54:22.970Z,8.60
2023-04-02T21:58:20.994Z,8.20
2023-04-02T22:02:18.932Z,7.70
2023-04-02T22:06:19.981Z,8.60
2023-04-02T22:10:17.923Z,8.70
2023-04-02T22:14:15.956Z,7.10
2023-04-02T22:18:13.932Z,8.60
2023-04-02T22:22:12.045Z,8.80
2023-04-02T22:26:10.901Z,12.80
2023-04-02T22:30:08.920Z,9.50
2023-04-02T22:34:08.003Z,9.80
2023-04-02T22:38:05.898Z,8.60
2023-04-02T22:42:03.955Z,8.90
2023-04-02T22:46:01.930Z,12.20
2023-04-02T22:49:59.864Z,8.30
2023-04-02T22:53:57.900Z,10.40
2023-04-02T22:57:56.856Z,11.40
2023-04-02T23:01:54.988Z,11.10
2023-04-02T23:05:53.852Z,10.70
2023-04-02T23:09:51.854Z,9.60
2023-04-02T23:13:50.869Z,11.00
2023-04-02T23:17:48.891Z,11.00
2023-04-02T23:21:46.840Z,11.30
2023-04-02T23:25:44.934Z,14.40
2023-04-02T23:29:42.815Z,9.90
2023-04-02T23:33:40.855Z,11.80
2023-04-02T23:37:38.809Z,13.30
2023-04-02T23:41:37.830Z,13.00
2023-04-02T23:45:35.924Z,14.30
2023-04-02T23:49:34.919Z,14.20
2023-04-02T23:53:32.832Z,14.40
2023-04-02T23:57:30.941Z,12.10
